createdAt,value
2018-05-25T00:02:24.620Z,93.90
2018-05-25T00:04:52.173Z,94.00
2018-05-25T00:07:19.750Z,94.00
2018-05-25T00:09:47.401Z,94.10
2018-05-25T00:12:15.067Z,94.00
2018-05-25T00:14:42.706Z,94.00
2018-05-25T00:17:11.374Z,94.00
2018-05-25T00:19:39.808Z,94.00
2018-05-25T00:22:07.459Z,94.00
2018-05-25T00:24:35.202Z,94.20
2018-05-25T00:27:03.927Z,94.50
2018-05-25T00:29:32.461Z,94.40
2018-05-25T00:32:00.881Z,94.50
2018-05-25T00:34:28.589Z,94.50
2018-05-25T00:36:56.191Z,94.50
2018-05-25T00:39:24.974Z,94.60
2018-05-25T00:41:52.556Z,94.70
2018-05-25T00:44:23.572Z,94.70
2018-05-25T00:46:51.590Z,94.80
2018-05-25T00:49:19.182Z,95.00
2018-05-25T00:51:46.868Z,94.90
2018-05-25T00:54:15.692Z,94.80
2018-05-25T00:56:43.418Z,95.00
2018-05-25T00:59:11.110Z,94.90
2018-05-25T01:01:38.788Z,94.80
2018-05-25T01:04:06.358Z,94.80
2018-05-25T01:06:34.096Z,94.80
2018-05-25T01:09:01.764Z,94.60
2018-05-25T01:11:48.134Z,94.60
2018-05-25T01:14:16.496Z,94.70
2018-05-25T01:16:44.120Z,94.70
2018-05-25T01:19:11.698Z,94.50
2018-05-25T01:21:39.296Z,94.40
2018-05-25T01:24:06.901Z,94.50
2018-05-25T01:26:34.527Z,94.50
2018-05-25T01:29:02.146Z,94.60
2018-05-25T01:31:31.482Z,94.90
2018-05-25T01:33:59.166Z,95.00
2018-05-25T01:36:26.748Z,95.10
2018-05-25T01:38:54.294Z,95.20
2018-05-25T01:41:21.957Z,95.20
2018-05-25T01:43:49.558Z,95.30
2018-05-25T01:46:17.925Z,95.60
2018-05-25T01:48:45.458Z,95.20
2018-05-25T01:51:13.106Z,95.20
2018-05-25T01:53:40.718Z,95.30
2018-05-25T01:56:08.347Z,95.40
2018-05-25T01:58:35.918Z,95.50
2018-05-25T02:01:03.617Z,95.50
2018-05-25T02:03:32.023Z,95.30
2018-05-25T02:05:59.579Z,95.30
2018-05-25T02:08:27.172Z,95.50
2018-05-25T02:10:54.826Z,95.40
2018-05-25T02:13:22.433Z,95.40
2018-05-25T02:15:50.066Z,95.30
2018-05-25T02:18:17.646Z,95.40
2018-05-25T02:20:45.300Z,95.40
2018-05-25T02:23:13.667Z,95.40
2018-05-25T02:25:41.227Z,95.40
2018-05-25T02:28:08.858Z,95.50
2018-05-25T02:30:36.471Z,95.40
2018-05-25T02:33:04.175Z,95.40
2018-05-25T02:35:31.839Z,95.60
2018-05-25T02:37:59.477Z,95.60
2018-05-25T02:40:27.855Z,95.80
2018-05-25T02:42:55.506Z,95.70
2018-05-25T02:45:23.863Z,95.70
2018-05-25T02:47:51.464Z,95.70
2018-05-25T02:50:19.110Z,95.70
2018-05-25T02:52:46.651Z,95.70
2018-05-25T02:55:14.272Z,95.70
2018-05-25T02:57:42.088Z,95.70
2018-05-25T03:00:10.431Z,95.80
2018-05-25T03:02:38.029Z,95.70
2018-05-25T03:05:06.439Z,95.90
2018-05-25T03:07:34.075Z,95.90
2018-05-25T03:10:01.763Z,96.00
2018-05-25T03:12:29.427Z,96.20
2018-05-25T03:14:57.821Z,96.20
2018-05-25T03:17:25.405Z,96.20
2018-05-25T03:19:53.015Z,96.10
2018-05-25T03:22:21.331Z,96.10
2018-05-25T03:24:48.914Z,96.10
2018-05-25T03:27:16.493Z,96.10
2018-05-25T03:29:44.088Z,96.00
2018-05-25T03:32:11.659Z,96.10
2018-05-25T03:34:39.507Z,96.10
2018-05-25T03:37:07.176Z,96.20
2018-05-25T03:39:35.694Z,96.00
2018-05-25T03:42:03.339Z,95.90
2018-05-25T03:44:30.950Z,96.00
2018-05-25T03:46:58.624Z,95.70
2018-05-25T03:49:26.123Z,95.90
2018-05-25T03:51:53.611Z,96.00
2018-05-25T03:54:21.843Z,96.00
2018-05-25T03:56:49.301Z,96.00
2018-05-25T03:59:28.548Z,96.10
2018-05-25T04:02:03.425Z,96.10
2018-05-25T04:04:30.880Z,96.20
2018-05-25T04:06:58.338Z,96.30
2018-05-25T04:09:25.798Z,96.20
2018-05-25T04:11:53.257Z,96.10
2018-05-25T04:14:20.762Z,96.30
2018-05-25T04:16:48.245Z,96.20
2018-05-25T04:19:15.697Z,96.30
2018-05-25T04:21:43.161Z,96.30
2018-05-25T04:24:10.615Z,96.20
2018-05-25T04:26:38.103Z,96.40
2018-05-25T04:29:05.560Z,96.40
2018-05-25T04:31:33.040Z,96.40
2018-05-25T04:34:00.509Z,96.50
2018-05-25T04:36:27.981Z,96.50
2018-05-25T04:38:55.449Z,96.40
2018-05-25T04:41:22.901Z,96.70
2018-05-25T04:43:50.382Z,96.00
2018-05-25T04:46:18.609Z,96.30
2018-05-25T04:48:46.073Z,96.30
2018-05-25T04:51:13.543Z,96.30
2018-05-25T04:53:41.021Z,96.20
2018-05-25T04:56:09.202Z,96.00
2018-05-25T04:58:37.431Z,96.40
2018-05-25T05:01:04.906Z,96.10
2018-05-25T05:03:32.357Z,96.20
2018-05-25T05:05:59.822Z,96.10
2018-05-25T05:08:27.282Z,96.30
2018-05-25T05:10:54.737Z,96.50
2018-05-25T05:13:22.201Z,96.30
2018-05-25T05:15:49.677Z,96.20
2018-05-25T05:18:17.152Z,96.00
2018-05-25T05:20:45.538Z,95.30
2018-05-25T05:23:15.637Z,95.30
2018-05-25T05:25:43.202Z,95.40
2018-05-25T05:28:10.671Z,95.40
2018-05-25T05:30:38.146Z,95.40
2018-05-25T05:33:05.666Z,95.50
2018-05-25T05:35:33.210Z,95.20
2018-05-25T05:38:00.684Z,95.30
2018-05-25T05:40:28.150Z,94.80
2018-05-25T05:42:55.609Z,94.80
2018-05-25T05:45:23.850Z,95.10
2018-05-25T05:47:51.337Z,95.00
2018-05-25T05:50:18.856Z,95.00
2018-05-25T05:52:46.338Z,95.00
2018-05-25T05:55:14.689Z,94.80
2018-05-25T05:57:42.158Z,95.00
2018-05-25T06:00:09.685Z,94.80
2018-05-25T06:02:37.143Z,94.80
2018-05-25T06:05:04.613Z,94.70
2018-05-25T06:07:32.091Z,94.80
2018-05-25T06:09:59.690Z,95.00
2018-05-25T06:12:27.248Z,95.10
2018-05-25T06:14:54.686Z,95.00
2018-05-25T06:17:22.169Z,95.00
2018-05-25T06:19:49.623Z,94.90
2018-05-25T06:22:17.173Z,94.90
2018-05-25T06:24:44.907Z,94.90
2018-05-25T06:27:12.358Z,95.00
2018-05-25T06:29:39.817Z,94.90
2018-05-25T06:32:07.275Z,94.80
2018-05-25T06:34:34.733Z,94.90
2018-05-25T06:37:02.292Z,94.90
2018-05-25T06:39:29.879Z,94.70
2018-05-25T06:41:57.406Z,94.50
2018-05-25T06:44:24.947Z,94.50
2018-05-25T06:46:52.348Z,94.60
2018-05-25T06:49:19.809Z,94.90
2018-05-25T06:51:47.327Z,94.50
2018-05-25T06:54:14.810Z,94.70
2018-05-25T06:56:42.284Z,94.80
2018-05-25T06:59:10.761Z,94.70
2018-05-25T07:01:39.137Z,94.40
2018-05-25T07:04:07.075Z,94.40
2018-05-25T07:06:34.750Z,94.30
2018-05-25T07:09:02.273Z,94.30
2018-05-25T07:11:30.494Z,93.70
2018-05-25T07:13:58.830Z,93.80
2018-05-25T07:16:27.078Z,93.70
2018-05-25T07:18:54.537Z,93.70
2018-05-25T07:21:22.015Z,93.50
2018-05-25T07:23:49.543Z,93.20
2018-05-25T07:26:16.998Z,92.60
2018-05-25T07:28:45.743Z,92.90
2018-05-25T07:31:15.018Z,93.00
2018-05-25T07:33:43.261Z,93.00
2018-05-25T07:36:10.805Z,93.00
2018-05-25T07:38:38.354Z,92.80
2018-05-25T07:41:06.063Z,93.00
2018-05-25T07:43:33.596Z,92.90
2018-05-25T07:46:01.397Z,92.50
2018-05-25T07:48:31.832Z,92.10
2018-05-25T07:51:16.432Z,92.00
2018-05-25T07:56:20.080Z,91.60
2018-05-25T07:58:49.205Z,91.40
2018-05-25T08:01:18.208Z,91.40
2018-05-25T08:03:45.849Z,91.30
2018-05-25T08:06:13.558Z,91.00
2018-05-25T08:08:41.507Z,90.90
2018-05-25T08:11:09.652Z,90.80
2018-05-25T08:13:42.064Z,90.60
2018-05-25T08:16:09.674Z,90.00
2018-05-25T08:18:37.162Z,89.90
2018-05-25T08:21:04.617Z,89.40
2018-05-25T08:23:32.073Z,89.00
2018-05-25T08:25:59.534Z,88.60
2018-05-25T08:28:28.840Z,88.00
2018-05-25T08:30:56.367Z,88.00
2018-05-25T08:33:23.938Z,87.00
2018-05-25T08:35:51.483Z,87.70
2018-05-25T08:38:18.942Z,86.90
2018-05-25T08:40:46.425Z,86.90
2018-05-25T08:43:13.911Z,85.60
2018-05-25T08:45:41.520Z,85.80
2018-05-25T08:48:09.014Z,85.70
2018-05-25T08:50:37.238Z,84.90
2018-05-25T08:53:04.729Z,84.30
2018-05-25T08:55:32.178Z,83.50
2018-05-25T08:57:59.637Z,83.00
2018-05-25T09:00:27.098Z,82.10
2018-05-25T09:02:54.570Z,81.20
2018-05-25T09:05:22.028Z,79.50
2018-05-25T09:07:49.483Z,79.20
2018-05-25T09:10:16.938Z,80.00
2018-05-25T09:12:44.406Z,78.30
2018-05-25T09:15:11.861Z,79.10
2018-05-25T09:17:39.313Z,78.80
2018-05-25T09:20:07.091Z,78.40
2018-05-25T09:22:34.534Z,79.30
2018-05-25T09:25:02.051Z,79.00
2018-05-25T09:27:29.513Z,78.20
2018-05-25T09:29:56.994Z,77.40
2018-05-25T09:32:25.262Z,78.30
2018-05-25T09:34:52.718Z,78.30
2018-05-25T09:37:20.188Z,77.10
2018-05-25T09:39:47.649Z,76.60
2018-05-25T09:42:15.618Z,74.40
2018-05-25T09:44:43.973Z,75.30
2018-05-25T09:53:25.449Z,73.60
2018-05-25T09:55:53.155Z,74.20
2018-05-25T09:58:21.578Z,72.90
2018-05-25T10:01:01.113Z,72.20
2018-05-25T10:06:31.799Z,74.40
2018-05-25T10:09:01.014Z,74.30
2018-05-25T10:19:27.753Z,70.80
2018-05-25T10:21:56.841Z,70.60
2018-05-25T10:24:25.022Z,70.60
2018-05-25T10:26:53.887Z,71.70
2018-05-25T10:32:24.382Z,69.50
2018-05-25T10:34:52.064Z,69.40
2018-05-25T10:37:19.575Z,69.60
2018-05-25T10:39:47.720Z,70.40
2018-05-25T10:42:15.843Z,70.40
2018-05-25T10:44:43.698Z,70.90
2018-05-25T10:47:11.503Z,69.40
2018-05-25T10:49:38.982Z,70.50
2018-05-25T10:52:06.438Z,69.30
2018-05-25T10:54:33.959Z,69.00
2018-05-25T10:57:01.476Z,69.70
2018-05-25T10:59:29.876Z,68.80
2018-05-25T11:01:57.357Z,68.80
2018-05-25T11:04:24.850Z,68.10
2018-05-25T11:06:52.382Z,68.50
2018-05-25T11:09:21.284Z,68.40
2018-05-25T11:11:48.829Z,68.40
2018-05-25T11:14:16.344Z,66.70
2018-05-25T11:16:44.205Z,65.30
2018-05-25T11:19:12.585Z,65.90
2018-05-25T11:21:40.921Z,66.80
2018-05-25T11:24:08.382Z,66.80
2018-05-25T11:26:36.709Z,66.20
2018-05-25T11:29:04.513Z,63.90
2018-05-25T11:31:32.536Z,63.60
2018-05-25T11:34:02.059Z,63.90
2018-05-25T11:36:29.781Z,63.80
2018-05-25T11:38:57.308Z,63.90
2018-05-25T11:41:24.767Z,63.50
2018-05-25T11:43:52.245Z,64.90
2018-05-25T11:46:19.988Z,65.00
2018-05-25T11:48:47.683Z,64.70
2018-05-25T11:51:15.142Z,65.00
2018-05-25T11:53:42.597Z,63.30
2018-05-25T11:56:10.273Z,63.20
2018-05-25T11:58:37.813Z,62.30
2018-05-25T12:01:05.276Z,61.70
2018-05-25T12:03:32.833Z,60.30
2018-05-25T12:06:00.906Z,60.80
2018-05-25T12:08:28.570Z,60.90
2018-05-25T12:10:56.204Z,61.20
2018-05-25T12:13:23.752Z,62.00
2018-05-25T12:15:51.982Z,60.00
2018-05-25T12:18:25.232Z,59.10
2018-05-25T12:20:52.793Z,58.80
2018-05-25T12:23:44.134Z,56.60
2018-05-25T12:26:11.665Z,55.50
2018-05-25T12:28:45.726Z,58.50
2018-05-25T12:31:13.270Z,59.40
2018-05-25T12:33:40.814Z,57.70
2018-05-25T12:36:08.288Z,56.30
2018-05-25T12:38:35.765Z,55.90
2018-05-25T12:41:03.272Z,56.00
2018-05-25T12:43:30.834Z,56.50
2018-05-25T12:45:58.334Z,55.80
2018-05-25T12:48:25.796Z,55.90
2018-05-25T12:50:53.291Z,55.50
2018-05-25T12:53:20.748Z,54.30
2018-05-25T12:55:48.986Z,55.00
2018-05-25T12:58:16.474Z,55.00
2018-05-25T13:00:43.917Z,55.20
2018-05-25T13:03:13.587Z,56.20
2018-05-25T13:05:41.074Z,56.10
2018-05-25T13:08:08.572Z,57.50
2018-05-25T13:10:36.042Z,56.80
2018-05-25T13:13:03.572Z,55.70
2018-05-25T13:15:31.832Z,55.60
2018-05-25T13:17:59.299Z,55.50
2018-05-25T13:20:29.532Z,53.60
2018-05-25T13:22:57.766Z,53.70
2018-05-25T13:25:25.225Z,53.60
2018-05-25T13:27:52.715Z,53.40
2018-05-25T13:30:20.194Z,53.50
2018-05-25T13:32:47.659Z,53.30
2018-05-25T13:35:15.144Z,54.40
2018-05-25T13:37:42.639Z,54.00
2018-05-25T13:40:11.007Z,52.20
2018-05-25T13:42:38.519Z,52.30
2018-05-25T13:45:05.997Z,51.40
2018-05-25T13:47:33.453Z,49.90
2018-05-25T13:50:00.914Z,49.50
2018-05-25T13:52:28.358Z,49.20
2018-05-25T13:54:55.860Z,50.10
2018-05-25T13:57:23.324Z,49.40
2018-05-25T13:59:51.573Z,49.90
2018-05-25T14:02:19.047Z,50.00
2018-05-25T14:04:46.502Z,51.30
2018-05-25T14:07:13.958Z,50.60
2018-05-25T14:09:41.408Z,50.40
2018-05-25T14:12:08.874Z,50.60
2018-05-25T14:14:36.314Z,51.40
2018-05-25T14:17:05.706Z,50.50
2018-05-25T14:19:34.271Z,50.40
2018-05-25T14:22:01.729Z,51.10
2018-05-25T14:24:29.178Z,50.70
2018-05-25T14:26:56.674Z,51.10
2018-05-25T14:29:24.140Z,52.00
2018-05-25T14:31:51.602Z,51.00
2018-05-25T14:34:20.690Z,51.30
2018-05-25T14:36:48.148Z,51.30
2018-05-25T14:39:15.599Z,52.30
2018-05-25T14:41:43.077Z,52.20
2018-05-25T14:44:10.589Z,54.10
2018-05-25T14:46:38.104Z,52.70
2018-05-25T14:49:05.579Z,52.10
2018-05-25T14:51:33.817Z,53.10
2018-05-25T14:54:01.364Z,53.10
2018-05-25T14:56:28.754Z,52.30
2018-05-25T14:58:56.298Z,50.80
2018-05-25T15:01:23.751Z,51.60
2018-05-25T15:03:51.233Z,51.50
2018-05-25T15:06:18.711Z,51.50
2018-05-25T15:08:46.939Z,51.80
2018-05-25T15:11:14.415Z,51.80
2018-05-25T15:13:41.901Z,52.00
2018-05-25T15:16:09.379Z,51.10
2018-05-25T15:18:37.189Z,50.90
2018-05-25T15:21:04.652Z,51.60
2018-05-25T15:23:32.114Z,49.90
2018-05-25T15:25:59.573Z,51.30
2018-05-25T15:28:27.867Z,51.40
2018-05-25T15:30:55.543Z,51.40
2018-05-25T15:33:22.877Z,51.40
2018-05-25T15:35:50.990Z,49.50
2018-05-25T15:38:18.454Z,47.90
2018-05-25T15:40:45.934Z,46.70
2018-05-25T15:43:13.420Z,46.20
2018-05-25T15:45:40.858Z,46.50
2018-05-25T15:48:09.128Z,48.50
2018-05-25T15:50:37.363Z,45.90
2018-05-25T15:53:04.838Z,45.80
2018-05-25T15:55:32.297Z,45.60
2018-05-25T15:57:59.761Z,44.00
2018-05-25T16:00:27.211Z,44.50
2018-05-25T16:02:54.665Z,46.70
2018-05-25T16:05:22.131Z,46.90
2018-05-25T16:07:49.587Z,45.50
2018-05-25T16:10:17.356Z,45.20
2018-05-25T16:12:44.815Z,44.70
2018-05-25T16:15:12.301Z,43.50
2018-05-25T16:17:40.836Z,46.10
2018-05-25T16:20:08.441Z,46.10
2018-05-25T16:22:35.944Z,45.60
2018-05-25T16:25:03.821Z,45.00
2018-05-25T16:27:31.359Z,45.90
2018-05-25T16:29:58.803Z,45.10
2018-05-25T16:32:26.245Z,45.50
2018-05-25T16:34:53.681Z,44.70
2018-05-25T16:37:21.165Z,46.00
2018-05-25T16:39:49.493Z,45.20
2018-05-25T16:42:16.966Z,45.20
2018-05-25T16:44:45.206Z,45.20
2018-05-25T16:47:12.759Z,46.50
2018-05-25T16:49:40.982Z,46.60
2018-05-25T16:52:08.440Z,46.60
2018-05-25T16:54:35.903Z,45.90
2018-05-25T16:57:04.119Z,47.80
2018-05-25T16:59:31.580Z,48.20
2018-05-25T17:01:59.045Z,48.60
2018-05-25T17:04:26.527Z,49.30
2018-05-25T17:06:53.990Z,51.20
2018-05-25T17:09:21.452Z,52.50
2018-05-25T17:11:48.911Z,51.80
2018-05-25T17:14:16.374Z,52.40
2018-05-25T17:16:43.833Z,53.10
2018-05-25T17:19:11.280Z,53.90
2018-05-25T17:21:38.724Z,54.10
2018-05-25T17:24:06.178Z,55.10
2018-05-25T17:26:33.625Z,54.70
2018-05-25T17:29:01.089Z,55.70
2018-05-25T17:31:28.751Z,55.70
2018-05-25T17:33:56.312Z,56.40
2018-05-25T17:36:24.566Z,56.90
2018-05-25T17:38:51.969Z,56.90
2018-05-25T17:41:19.464Z,57.20
2018-05-25T17:43:46.925Z,57.10
2018-05-25T17:46:14.412Z,57.10
2018-05-25T17:48:41.873Z,57.80
2018-05-25T17:51:09.367Z,58.50
2018-05-25T17:53:36.891Z,58.20
2018-05-25T17:56:04.338Z,58.70
2018-05-25T17:58:31.797Z,58.40
2018-05-25T18:00:59.258Z,58.90
2018-05-25T18:03:26.745Z,58.60
2018-05-25T18:05:54.194Z,59.00
2018-05-25T18:08:21.643Z,58.90
2018-05-25T18:10:49.104Z,59.20
2018-05-25T18:13:16.555Z,59.30
2018-05-25T18:15:44.017Z,59.70
2018-05-25T18:18:11.476Z,59.90
2018-05-25T18:20:38.946Z,60.40
2018-05-25T18:23:06.405Z,61.00
2018-05-25T18:25:33.870Z,61.20
2018-05-25T18:28:01.332Z,61.90
2018-05-25T18:30:28.866Z,62.90
2018-05-25T18:32:57.036Z,63.30
2018-05-25T18:35:29.295Z,63.30
2018-05-25T18:37:56.833Z,63.80
2018-05-25T18:40:24.282Z,64.90
2018-05-25T18:42:51.775Z,65.80
2018-05-25T18:45:19.235Z,66.40
2018-05-25T18:47:46.714Z,66.30
2018-05-25T18:50:14.195Z,66.50
2018-05-25T18:52:41.657Z,67.20
2018-05-25T18:55:09.920Z,68.20
2018-05-25T18:57:37.372Z,68.10
2018-05-25T19:00:04.834Z,68.50
2018-05-25T19:02:32.292Z,68.60
2018-05-25T19:04:59.759Z,69.30
2018-05-25T19:07:27.204Z,69.80
2018-05-25T19:09:54.666Z,70.10
2018-05-25T19:12:22.178Z,70.50
2018-05-25T19:14:49.903Z,70.70
2018-05-25T19:17:17.521Z,71.00
2018-05-25T19:19:45.226Z,71.30
2018-05-25T19:22:13.237Z,71.70
2018-05-25T19:24:41.938Z,72.00
2018-05-25T19:27:09.613Z,72.30
2018-05-25T19:29:37.178Z,72.80
2018-05-25T19:32:17.375Z,73.10
2018-05-25T19:35:08.355Z,73.90
2018-05-25T19:37:38.202Z,74.40
2018-05-25T19:40:07.711Z,75.00
2018-05-25T19:42:35.308Z,75.00
2018-05-25T19:47:50.467Z,75.60
2018-05-25T19:50:18.902Z,75.80
2018-05-25T19:52:47.432Z,75.90
2018-05-25T19:55:15.033Z,75.80
2018-05-25T19:57:42.584Z,75.80
2018-05-25T20:00:10.186Z,75.90
2018-05-25T20:02:37.690Z,76.60
2018-05-25T20:05:05.221Z,75.70
2018-05-25T20:07:35.828Z,77.00
2018-05-25T20:10:04.703Z,77.40
2018-05-25T20:12:35.598Z,77.30
2018-05-25T20:15:04.297Z,77.90
2018-05-25T20:17:31.821Z,78.40
2018-05-25T20:20:00.649Z,78.80
2018-05-25T20:22:29.467Z,79.00
2018-05-25T20:24:57.106Z,79.00
2018-05-25T20:27:24.574Z,79.10
2018-05-25T20:29:52.105Z,79.50
2018-05-25T20:32:19.596Z,79.70
2018-05-25T20:34:47.278Z,79.90
2018-05-25T20:37:14.971Z,79.90
2018-05-25T20:39:42.456Z,80.40
2018-05-25T20:42:09.922Z,80.40
2018-05-25T20:44:37.390Z,80.70
2018-05-25T20:47:04.863Z,80.70
2018-05-25T20:49:32.339Z,81.00
2018-05-25T20:51:59.806Z,81.20
2018-05-25T20:54:27.261Z,81.40
2018-05-25T20:56:54.706Z,81.40
2018-05-25T20:59:22.166Z,81.20
2018-05-25T21:01:49.758Z,81.50
2018-05-25T21:04:18.066Z,81.40
2018-05-25T21:06:45.523Z,81.00
2018-05-25T21:09:12.993Z,81.00
2018-05-25T21:11:40.526Z,81.30
2018-05-25T21:14:07.995Z,81.20
2018-05-25T21:16:35.564Z,81.60
2018-05-25T21:19:03.039Z,81.40
2018-05-25T21:21:30.564Z,81.60
2018-05-25T21:23:58.017Z,82.10
2018-05-25T21:26:25.499Z,82.30
2018-05-25T21:28:53.012Z,82.90
2018-05-25T21:31:20.494Z,83.20
2018-05-25T21:33:47.957Z,83.60
2018-05-25T21:36:15.420Z,84.00
2018-05-25T21:38:44.831Z,84.50
2018-05-25T21:41:12.289Z,85.10
2018-05-25T21:43:39.773Z,85.40
2018-05-25T21:46:07.226Z,86.00
2018-05-25T21:48:34.697Z,86.20
2018-05-25T21:51:03.128Z,85.70
2018-05-25T21:53:30.606Z,85.60
2018-05-25T21:55:58.089Z,85.90
2018-05-25T21:58:25.540Z,86.10
2018-05-25T22:00:53.021Z,87.00
2018-05-25T22:03:20.538Z,86.90
2018-05-25T22:05:47.989Z,87.00
2018-05-25T22:08:16.215Z,87.20
2018-05-25T22:10:45.671Z,87.20
2018-05-25T22:13:13.134Z,87.50
2018-05-25T22:15:40.595Z,87.90
2018-05-25T22:18:08.844Z,89.30
2018-05-25T22:20:36.343Z,89.20
2018-05-25T22:23:03.809Z,89.00
2018-05-25T22:25:31.273Z,89.10
2018-05-25T22:27:58.735Z,89.50
2018-05-25T22:30:26.218Z,89.90
2018-05-25T22:32:54.435Z,90.30
2018-05-25T22:35:21.914Z,90.20
2018-05-25T22:37:49.375Z,90.30
2018-05-25T22:40:16.855Z,90.50
2018-05-25T22:42:56.257Z,90.60
2018-05-25T22:45:35.673Z,91.00
2018-05-25T22:48:15.166Z,90.60
2018-05-25T22:50:54.463Z,90.60
2018-05-25T22:53:27.747Z,90.80
2018-05-25T22:55:55.222Z,90.80
2018-05-25T22:58:22.682Z,90.80
2018-05-25T23:00:50.194Z,90.90
2018-05-25T23:03:17.776Z,90.90
2018-05-25T23:05:45.257Z,90.80
2018-05-25T23:08:12.709Z,90.90
2018-05-25T23:10:40.758Z,91.10
2018-05-25T23:13:08.218Z,91.20
2018-05-25T23:15:35.698Z,91.20
2018-05-25T23:18:03.158Z,91.40
2018-05-25T23:20:32.563Z,91.40
2018-05-25T23:23:00.016Z,91.30
2018-05-25T23:25:27.490Z,91.20
2018-05-25T23:27:54.967Z,91.40
2018-05-25T23:30:22.417Z,91.30
2018-05-25T23:32:49.894Z,91.40
2018-05-25T23:35:17.330Z,91.60
2018-05-25T23:37:44.804Z,91.60
2018-05-25T23:40:12.247Z,91.80
2018-05-25T23:42:39.718Z,91.90
2018-05-25T23:45:07.190Z,92.00
2018-05-25T23:47:34.671Z,92.10
2018-05-25T23:50:02.129Z,92.20
2018-05-25T23:52:29.603Z,92.50
2018-05-25T23:54:57.080Z,92.40
2018-05-25T23:57:24.534Z,92.70
2018-05-25T23:59:51.991Z,92.40
